createdAt,value
2023-01-05T00:02:41.697Z,100.00
2023-01-05T00:06:43.884Z,100.00
2023-01-05T00:11:03.944Z,100.00
2023-01-05T00:15:24.894Z,100.00
2023-01-05T00:19:45.298Z,100.00
2023-01-05T00:23:46.830Z,100.00
2023-01-05T00:27:51.598Z,100.00
2023-01-05T00:31:53.284Z,100.00
2023-01-05T00:35:56.141Z,100.00
2023-01-05T00:39:57.796Z,100.00
2023-01-05T00:43:59.373Z,100.00
2023-01-05T00:48:00.989Z,100.00
2023-01-05T00:52:02.784Z,100.00
2023-01-05T00:56:04.640Z,100.00
2023-01-05T01:00:11.265Z,100.00
2023-01-05T01:04:14.035Z,100.00
2023-01-05T01:08:16.513Z,100.00
2023-01-05T01:12:18.053Z,100.00
2023-01-05T01:16:19.771Z,100.00
2023-01-05T01:20:21.385Z,100.00
2023-01-05T01:24:27.846Z,100.00
2023-01-05T01:28:29.421Z,100.00
2023-01-05T01:32:31.034Z,100.00
2023-01-05T01:36:32.705Z,100.00
2023-01-05T01:40:42.138Z,100.00
2023-01-05T01:44:49.310Z,100.00
2023-01-05T01:49:03.718Z,100.00
2023-01-05T01:53:19.717Z,100.00
2023-01-05T01:57:22.400Z,100.00
2023-01-05T02:01:24.202Z,100.00
2023-01-05T02:05:31.453Z,100.00
2023-01-05T02:09:33.333Z,100.00
2023-01-05T02:13:37.550Z,100.00
2023-01-05T02:18:02.974Z,100.00
2023-01-05T02:22:50.464Z,100.00
2023-01-05T02:26:58.444Z,100.00
2023-01-05T02:31:02.943Z,100.00
2023-01-05T02:35:28.189Z,100.00
2023-01-05T02:39:46.011Z,100.00
2023-01-05T02:43:48.046Z,100.00
2023-01-05T02:47:50.003Z,100.00
2023-01-05T02:51:55.781Z,100.00
2023-01-05T02:56:02.182Z,100.00
2023-01-05T03:00:10.570Z,100.00
2023-01-05T03:04:21.005Z,100.00
2023-01-05T03:08:32.111Z,100.00
2023-01-05T03:12:55.517Z,100.00
2023-01-05T03:17:01.810Z,100.00
2023-01-05T03:21:04.495Z,100.00
2023-01-05T03:25:31.035Z,100.00
2023-01-05T03:29:53.791Z,100.00
2023-01-05T03:34:39.522Z,100.00
2023-01-05T03:38:47.327Z,100.00
2023-01-05T03:42:49.928Z,100.00
2023-01-05T03:46:52.226Z,100.00
2023-01-05T03:50:54.556Z,100.00
2023-01-05T03:54:58.334Z,100.00
2023-01-05T03:59:00.032Z,100.00
2023-01-05T04:03:01.883Z,100.00
2023-01-05T04:07:04.123Z,100.00
2023-01-05T04:11:16.353Z,100.00
2023-01-05T04:15:22.879Z,100.00
2023-01-05T04:19:27.406Z,100.00
2023-01-05T04:23:30.860Z,100.00
2023-01-05T04:27:32.559Z,100.00
2023-01-05T04:31:34.847Z,100.00
2023-01-05T04:35:36.784Z,100.00
2023-01-05T04:39:38.472Z,100.00
2023-01-05T04:43:40.954Z,100.00
2023-01-05T04:47:42.692Z,100.00
2023-01-05T04:51:46.072Z,100.00
2023-01-05T04:55:48.536Z,100.00
2023-01-05T04:59:50.937Z,100.00
2023-01-05T05:03:52.922Z,100.00
2023-01-05T05:07:56.830Z,100.00
2023-01-05T05:12:01.930Z,100.00
2023-01-05T05:16:06.091Z,100.00
2023-01-05T05:20:09.905Z,100.00
2023-01-05T05:24:12.206Z,100.00
2023-01-05T05:28:18.332Z,100.00
2023-01-05T05:32:20.082Z,100.00
2023-01-05T05:36:22.654Z,100.00
2023-01-05T05:40:26.291Z,100.00
2023-01-05T05:44:27.939Z,100.00
2023-01-05T05:48:29.529Z,100.00
2023-01-05T05:52:31.163Z,100.00
2023-01-05T05:56:33.079Z,100.00
2023-01-05T06:00:34.817Z,100.00
2023-01-05T06:04:36.433Z,100.00
2023-01-05T06:08:38.465Z,100.00
2023-01-05T06:12:40.111Z,100.00
2023-01-05T06:16:43.183Z,100.00
2023-01-05T06:20:45.037Z,100.00
2023-01-05T06:24:47.551Z,100.00
2023-01-05T06:28:49.249Z,100.00
2023-01-05T06:32:52.564Z,100.00
2023-01-05T06:36:59.297Z,100.00
2023-01-05T06:41:05.531Z,100.00
2023-01-05T06:45:09.042Z,100.00
2023-01-05T06:49:12.401Z,100.00
2023-01-05T06:53:14.443Z,100.00
2023-01-05T06:57:16.047Z,100.00
2023-01-05T07:01:18.565Z,100.00
2023-01-05T07:05:21.040Z,100.00
2023-01-05T07:09:22.595Z,100.00
2023-01-05T07:13:24.373Z,100.00
2023-01-05T07:17:26.234Z,100.00
2023-01-05T07:21:27.764Z,100.00
2023-01-05T07:25:31.850Z,100.00
2023-01-05T07:29:34.059Z,100.00
2023-01-05T07:33:41.008Z,100.00
2023-01-05T07:37:46.073Z,100.00
2023-01-05T07:41:48.610Z,100.00
2023-01-05T07:45:52.024Z,100.00
2023-01-05T07:49:53.675Z,100.00
2023-01-05T07:53:56.151Z,100.00
2023-01-05T07:57:57.775Z,100.00
2023-01-05T08:02:01.773Z,100.00
2023-01-05T08:06:12.947Z,100.00
2023-01-05T08:10:29.437Z,100.00
2023-01-05T08:14:31.032Z,100.00
2023-01-05T08:18:32.552Z,100.00
2023-01-05T08:22:36.481Z,100.00
2023-01-05T08:26:39.897Z,100.00
2023-01-05T08:30:43.709Z,100.00
2023-01-05T08:34:47.953Z,100.00
2023-01-05T08:38:55.087Z,100.00
2023-01-05T08:42:57.697Z,100.00
2023-01-05T08:47:01.024Z,100.00
2023-01-05T08:51:07.522Z,100.00
2023-01-05T08:55:09.332Z,100.00
2023-01-05T08:59:13.787Z,100.00
2023-01-05T09:03:15.406Z,100.00
2023-01-05T09:07:21.037Z,100.00
2023-01-05T09:11:28.028Z,100.00
2023-01-05T09:15:36.083Z,100.00
2023-01-05T09:19:39.073Z,100.00
2023-01-05T09:23:41.409Z,100.00
2023-01-05T09:27:43.023Z,100.00
2023-01-05T09:31:46.062Z,100.00
2023-01-05T09:35:57.224Z,100.00
2023-01-05T09:39:59.129Z,100.00
2023-01-05T09:44:04.622Z,100.00
2023-01-05T09:48:13.000Z,100.00
2023-01-05T09:52:20.787Z,100.00
2023-01-05T09:57:07.464Z,100.00
2023-01-05T10:01:14.369Z,100.00
2023-01-05T10:05:21.809Z,100.00
2023-01-05T10:09:35.171Z,100.00
2023-01-05T10:13:54.958Z,100.00
2023-01-05T10:18:02.777Z,100.00
2023-01-05T10:22:19.148Z,100.00
2023-01-05T10:26:58.150Z,100.00
2023-01-05T10:31:02.702Z,100.00
2023-01-05T10:35:58.852Z,98.92
2023-01-05T10:40:21.150Z,97.88
2023-01-05T10:44:37.009Z,97.41
2023-01-05T10:48:39.850Z,96.28
2023-01-05T10:52:42.009Z,96.56
2023-01-05T10:56:43.526Z,96.70
2023-01-05T11:00:46.028Z,94.85
2023-01-05T11:04:49.264Z,95.07
2023-01-05T11:08:52.020Z,94.98
2023-01-05T11:13:02.999Z,92.64
2023-01-05T11:17:07.773Z,93.16
2023-01-05T11:21:43.401Z,90.65
2023-01-05T11:25:46.741Z,91.61
2023-01-05T11:30:20.987Z,88.67
2023-01-05T11:34:43.072Z,86.40
2023-01-05T11:38:53.982Z,88.29
2023-01-05T11:42:55.738Z,88.43
2023-01-05T11:46:57.432Z,88.30
2023-01-05T11:50:59.837Z,85.07
2023-01-05T11:55:19.900Z,84.99
2023-01-05T11:59:30.888Z,85.27
2023-01-05T12:03:59.078Z,84.01
2023-01-05T12:08:10.450Z,84.13
2023-01-05T12:12:27.892Z,84.91
2023-01-05T12:16:48.033Z,84.09
2023-01-05T12:21:00.110Z,84.72
2023-01-05T12:25:08.461Z,85.66
2023-01-05T12:30:43.661Z,84.77
2023-01-05T12:34:31.975Z,85.61
2023-01-05T12:39:08.115Z,85.11
2023-01-05T12:43:23.516Z,82.89
2023-01-05T12:47:44.999Z,83.62
2023-01-05T12:51:53.652Z,84.43
2023-01-05T12:55:58.356Z,85.28
2023-01-05T13:00:11.987Z,86.17
2023-01-05T13:04:42.891Z,87.45
2023-01-05T13:08:59.672Z,88.98
2023-01-05T13:13:06.478Z,90.60
2023-01-05T13:17:26.156Z,91.00
2023-01-05T13:21:37.945Z,91.53
2023-01-05T13:25:54.989Z,90.63
2023-01-05T13:30:01.510Z,91.23
2023-01-05T13:34:46.525Z,91.12
2023-01-05T13:39:13.379Z,90.80
2023-01-05T13:43:33.053Z,90.99
2023-01-05T13:47:56.670Z,90.96
2023-01-05T13:52:07.489Z,91.96
2023-01-05T13:56:27.616Z,92.91
2023-01-05T14:00:33.719Z,94.44
2023-01-05T14:04:35.488Z,95.04
2023-01-05T14:08:39.856Z,96.36
2023-01-05T14:12:51.332Z,97.34
2023-01-05T14:16:54.056Z,97.56
2023-01-05T14:20:57.249Z,98.46
2023-01-05T14:24:59.133Z,98.60
2023-01-05T14:29:02.359Z,99.97
2023-01-05T14:33:06.395Z,100.00
2023-01-05T14:37:22.686Z,100.00
2023-01-05T14:41:29.824Z,100.00
2023-01-05T14:45:35.063Z,100.00
2023-01-05T14:49:52.592Z,100.00
2023-01-05T14:54:03.908Z,100.00
2023-01-05T14:58:13.030Z,100.00
2023-01-05T15:02:26.429Z,100.00
2023-01-05T15:06:49.097Z,100.00
2023-01-05T15:11:31.015Z,100.00
2023-01-05T15:15:47.283Z,100.00
2023-01-05T15:20:23.944Z,100.00
2023-01-05T15:25:01.241Z,100.00
2023-01-05T15:29:18.970Z,100.00
2023-01-05T15:33:40.707Z,100.00
2023-01-05T15:37:43.672Z,100.00
2023-01-05T15:41:45.499Z,100.00
2023-01-05T15:45:53.794Z,100.00
2023-01-05T15:50:01.748Z,100.00
2023-01-05T15:54:05.613Z,100.00
2023-01-05T15:58:15.504Z,100.00
2023-01-05T16:02:22.931Z,100.00
2023-01-05T16:06:28.029Z,100.00
2023-01-05T16:10:40.038Z,100.00
2023-01-05T16:14:45.398Z,100.00
2023-01-05T16:18:54.034Z,100.00
2023-01-05T16:23:04.717Z,100.00
2023-01-05T16:27:12.954Z,100.00
2023-01-05T16:31:28.369Z,100.00
2023-01-05T16:35:50.682Z,100.00
2023-01-05T16:40:01.480Z,100.00
2023-01-05T16:44:03.516Z,100.00
2023-01-05T16:48:40.322Z,100.00
2023-01-05T16:52:46.676Z,100.00
2023-01-05T16:57:01.754Z,100.00
2023-01-05T17:01:20.965Z,100.00
2023-01-05T17:05:36.043Z,100.00
2023-01-05T17:09:44.936Z,100.00
2023-01-05T17:13:53.956Z,100.00
2023-01-05T17:17:57.764Z,100.00
2023-01-05T17:22:01.883Z,100.00
2023-01-05T17:26:09.839Z,100.00
2023-01-05T17:30:21.423Z,100.00
2023-01-05T17:34:23.582Z,100.00
2023-01-05T17:38:25.382Z,100.00
2023-01-05T17:42:45.322Z,100.00
2023-01-05T17:46:48.242Z,100.00
2023-01-05T17:50:52.873Z,100.00
2023-01-05T17:54:55.827Z,100.00
2023-01-05T17:58:57.513Z,100.00
2023-01-05T18:02:59.213Z,100.00
2023-01-05T18:07:03.939Z,100.00
2023-01-05T18:11:09.695Z,100.00
2023-01-05T18:15:15.265Z,100.00
2023-01-05T18:19:16.939Z,100.00
2023-01-05T18:23:20.954Z,100.00
2023-01-05T18:27:22.936Z,100.00
2023-01-05T18:31:25.875Z,100.00
2023-01-05T18:35:28.922Z,100.00
2023-01-05T18:39:34.472Z,100.00
2023-01-05T18:43:36.915Z,100.00
2023-01-05T18:47:38.710Z,100.00
2023-01-05T18:51:43.285Z,100.00
2023-01-05T18:55:45.121Z,100.00
2023-01-05T18:59:47.414Z,100.00
2023-01-05T19:03:52.911Z,100.00
2023-01-05T19:07:54.759Z,100.00
2023-01-05T19:11:58.444Z,100.00
2023-01-05T19:16:03.571Z,100.00
2023-01-05T19:20:07.124Z,100.00
2023-01-05T19:24:17.430Z,100.00
2023-01-05T19:28:19.012Z,100.00
2023-01-05T19:32:20.561Z,100.00
2023-01-05T19:36:24.892Z,100.00
2023-01-05T19:40:27.093Z,100.00
2023-01-05T19:44:28.793Z,100.00
2023-01-05T19:48:34.488Z,100.00
2023-01-05T19:52:36.141Z,100.00
2023-01-05T19:56:38.916Z,100.00
2023-01-05T20:00:41.440Z,100.00
2023-01-05T20:04:45.596Z,100.00
2023-01-05T20:08:52.590Z,100.00
2023-01-05T20:12:54.408Z,100.00
2023-01-05T20:17:03.924Z,100.00
2023-01-05T20:21:08.730Z,100.00
2023-01-05T20:25:10.445Z,100.00
2023-01-05T20:29:13.934Z,100.00
2023-01-05T20:33:16.896Z,100.00
2023-01-05T20:37:19.413Z,100.00
2023-01-05T20:41:24.900Z,100.00
2023-01-05T20:45:26.464Z,100.00
2023-01-05T20:49:29.217Z,100.00
2023-01-05T20:53:31.912Z,100.00
2023-01-05T20:57:33.776Z,100.00
2023-01-05T21:01:36.196Z,100.00
2023-01-05T21:05:40.895Z,100.00
2023-01-05T21:09:44.385Z,100.00
2023-01-05T21:13:49.676Z,100.00
2023-01-05T21:17:52.223Z,100.00
2023-01-05T21:21:55.944Z,100.00
2023-01-05T21:26:07.054Z,100.00
2023-01-05T21:30:12.272Z,100.00
2023-01-05T21:34:15.055Z,100.00
2023-01-05T21:38:16.552Z,100.00
2023-01-05T21:42:36.806Z,100.00
2023-01-05T21:46:40.693Z,100.00
2023-01-05T21:51:00.980Z,100.00
2023-01-05T21:55:31.885Z,100.00
2023-01-05T21:59:33.753Z,100.00
2023-01-05T22:03:38.091Z,100.00
2023-01-05T22:07:39.695Z,100.00
2023-01-05T22:11:41.403Z,100.00
2023-01-05T22:15:44.611Z,100.00
2023-01-05T22:19:46.310Z,100.00
2023-01-05T22:23:48.386Z,100.00
2023-01-05T22:27:49.942Z,100.00
2023-01-05T22:31:51.834Z,100.00
2023-01-05T22:35:53.540Z,100.00
2023-01-05T22:39:55.149Z,100.00
2023-01-05T22:43:58.189Z,100.00
2023-01-05T22:47:59.932Z,100.00
2023-01-05T22:52:01.697Z,100.00
2023-01-05T22:56:03.548Z,100.00
2023-01-05T23:00:09.579Z,100.00
2023-01-05T23:04:12.203Z,100.00
2023-01-05T23:08:14.050Z,100.00
2023-01-05T23:12:15.627Z,100.00
2023-01-05T23:16:17.976Z,100.00
2023-01-05T23:20:19.654Z,100.00
2023-01-05T23:24:21.415Z,100.00
2023-01-05T23:28:25.624Z,100.00
2023-01-05T23:32:27.275Z,100.00
2023-01-05T23:36:28.809Z,100.00
2023-01-05T23:40:31.605Z,100.00
2023-01-05T23:44:33.153Z,100.00
2023-01-05T23:48:36.110Z,100.00
2023-01-05T23:52:37.686Z,100.00
2023-01-05T23:56:39.424Z,100.00
